sensor_id;sensor_type;location;lat;lon;timestamp;P1;durP1;ratioP1;P2;durP2;ratioP2
28427;SDS011;15662;49.128;8.520;2022-08-21T00:02:21;2.63;;;1.70;;
28427;SDS011;15662;49.128;8.520;2022-08-21T00:04:51;2.92;;;1.58;;
28427;SDS011;15662;49.128;8.520;2022-08-21T00:07:23;2.05;;;1.40;;
28427;SDS011;15662;49.128;8.520;2022-08-21T00:09:52;1.73;;;1.52;;
28427;SDS011;15662;49.128;8.520;2022-08-21T00:12:21;3.95;;;1.50;;
28427;SDS011;15662;49.128;8.520;2022-08-21T00:14:51;3.33;;;1.50;;
28427;SDS011;15662;49.128;8.520;2022-08-21T00:17:25;1.50;;;1.40;;
28427;SDS011;15662;49.128;8.520;2022-08-21T00:19:54;3.00;;;1.50;;
28427;SDS011;15662;49.128;8.520;2022-08-21T00:22:23;1.70;;;1.60;;
28427;SDS011;15662;49.128;8.520;2022-08-21T00:24:52;1.60;;;1.50;;
28427;SDS011;15662;49.128;8.520;2022-08-21T00:27:20;2.53;;;1.58;;
28427;SDS011;15662;49.128;8.520;2022-08-21T00:29:50;1.70;;;1.42;;
28427;SDS011;15662;49.128;8.520;2022-08-21T00:32:23;1.88;;;1.70;;
28427;SDS011;15662;49.128;8.520;2022-08-21T00:34:53;2.75;;;1.70;;
28427;SDS011;15662;49.128;8.520;2022-08-21T00:37:22;1.85;;;1.42;;
28427;SDS011;15662;49.128;8.520;2022-08-21T00:39:50;3.55;;;1.38;;
28427;SDS011;15662;49.128;8.520;2022-08-21T00:42:18;2.05;;;1.38;;
28427;SDS011;15662;49.128;8.520;2022-08-21T00:44:50;2.40;;;1.73;;
28427;SDS011;15662;49.128;8.520;2022-08-21T00:47:19;2.67;;;1.60;;
28427;SDS011;15662;49.128;8.520;2022-08-21T00:49:48;1.50;;;1.35;;
28427;SDS011;15662;49.128;8.520;2022-08-21T00:52:20;2.03;;;1.38;;
28427;SDS011;15662;49.128;8.520;2022-08-21T00:54:55;2.00;;;1.50;;
28427;SDS011;15662;49.128;8.520;2022-08-21T00:57:29;1.40;;;1.30;;
28427;SDS011;15662;49.128;8.520;2022-08-21T01:00:21;2.03;;;1.80;;
28427;SDS011;15662;49.128;8.520;2022-08-21T01:02:57;2.63;;;1.60;;
28427;SDS011;15662;49.128;8.520;2022-08-21T01:05:34;1.35;;;1.25;;
28427;SDS011;15662;49.128;8.520;2022-08-21T01:08:03;2.63;;;1.45;;
28427;SDS011;15662;49.128;8.520;2022-08-21T01:10:34;1.58;;;1.38;;
28427;SDS011;15662;49.128;8.520;2022-08-21T01:13:05;2.50;;;1.55;;
28427;SDS011;15662;49.128;8.520;2022-08-21T01:15:39;3.00;;;1.50;;
28427;SDS011;15662;49.128;8.520;2022-08-21T01:18:14;1.70;;;1.60;;
28427;SDS011;15662;49.128;8.520;2022-08-21T01:23:43;3.63;;;1.63;;
28427;SDS011;15662;49.128;8.520;2022-08-21T01:26:17;2.92;;;1.48;;
28427;SDS011;15662;49.128;8.520;2022-08-21T01:31:42;1.95;;;1.40;;
28427;SDS011;15662;49.128;8.520;2022-08-21T01:34:10;1.67;;;1.40;;
28427;SDS011;15662;49.128;8.520;2022-08-21T01:36:39;6.03;;;1.73;;
28427;SDS011;15662;49.128;8.520;2022-08-21T01:39:09;1.95;;;1.60;;
28427;SDS011;15662;49.128;8.520;2022-08-21T01:41:39;1.95;;;1.65;;
28427;SDS011;15662;49.128;8.520;2022-08-21T01:44:07;2.03;;;1.50;;
28427;SDS011;15662;49.128;8.520;2022-08-21T01:46:37;3.10;;;1.60;;
28427;SDS011;15662;49.128;8.520;2022-08-21T01:49:07;2.35;;;1.80;;
28427;SDS011;15662;49.128;8.520;2022-08-21T01:51:35;2.88;;;1.52;;
28427;SDS011;15662;49.128;8.520;2022-08-21T01:54:05;4.47;;;1.90;;
28427;SDS011;15662;49.128;8.520;2022-08-21T01:56:41;2.90;;;2.08;;
28427;SDS011;15662;49.128;8.520;2022-08-21T01:59:15;3.80;;;1.88;;
28427;SDS011;15662;49.128;8.520;2022-08-21T02:01:43;1.67;;;1.42;;
28427;SDS011;15662;49.128;8.520;2022-08-21T02:04:12;2.35;;;1.75;;
28427;SDS011;15662;49.128;8.520;2022-08-21T02:06:40;2.45;;;1.38;;
28427;SDS011;15662;49.128;8.520;2022-08-21T02:09:10;3.53;;;1.90;;
28427;SDS011;15662;49.128;8.520;2022-08-21T02:11:40;1.53;;;1.43;;
28427;SDS011;15662;49.128;8.520;2022-08-21T02:14:12;2.67;;;1.83;;
28427;SDS011;15662;49.128;8.520;2022-08-21T02:16:58;2.35;;;1.73;;
28427;SDS011;15662;49.128;8.520;2022-08-21T02:19:31;2.42;;;1.65;;
28427;SDS011;15662;49.128;8.520;2022-08-21T02:22:10;2.65;;;1.60;;
28427;SDS011;15662;49.128;8.520;2022-08-21T02:24:39;2.22;;;1.80;;
28427;SDS011;15662;49.128;8.520;2022-08-21T02:27:24;2.85;;;1.65;;
28427;SDS011;15662;49.128;8.520;2022-08-21T02:29:55;3.05;;;1.80;;
28427;SDS011;15662;49.128;8.520;2022-08-21T02:32:25;2.35;;;1.73;;
28427;SDS011;15662;49.128;8.520;2022-08-21T02:34:54;1.70;;;1.45;;
28427;SDS011;15662;49.128;8.520;2022-08-21T02:37:23;2.40;;;1.77;;
28427;SDS011;15662;49.128;8.520;2022-08-21T02:39:52;2.28;;;1.60;;
28427;SDS011;15662;49.128;8.520;2022-08-21T02:42:21;2.58;;;1.65;;
28427;SDS011;15662;49.128;8.520;2022-08-21T02:44:49;2.85;;;1.90;;
28427;SDS011;15662;49.128;8.520;2022-08-21T02:47:18;3.78;;;1.77;;
28427;SDS011;15662;49.128;8.520;2022-08-21T02:49:47;2.28;;;1.80;;
28427;SDS011;15662;49.128;8.520;2022-08-21T02:52:15;2.55;;;1.83;;
28427;SDS011;15662;49.128;8.520;2022-08-21T02:54:44;2.47;;;1.67;;
28427;SDS011;15662;49.128;8.520;2022-08-21T02:57:14;2.53;;;1.70;;
28427;SDS011;15662;49.128;8.520;2022-08-21T02:59:43;1.65;;;1.50;;
28427;SDS011;15662;49.128;8.520;2022-08-21T03:02:11;2.53;;;1.63;;
28427;SDS011;15662;49.128;8.520;2022-08-21T03:04:40;2.03;;;1.80;;
28427;SDS011;15662;49.128;8.520;2022-08-21T03:07:15;2.05;;;1.80;;
28427;SDS011;15662;49.128;8.520;2022-08-21T03:09:44;2.92;;;2.00;;
28427;SDS011;15662;49.128;8.520;2022-08-21T03:12:22;2.45;;;1.77;;
28427;SDS011;15662;49.128;8.520;2022-08-21T03:14:56;1.95;;;1.70;;
28427;SDS011;15662;49.128;8.520;2022-08-21T03:17:26;2.75;;;2.15;;
28427;SDS011;15662;49.128;8.520;2022-08-21T03:19:56;2.85;;;2.00;;
28427;SDS011;15662;49.128;8.520;2022-08-21T03:22:25;1.80;;;1.70;;
28427;SDS011;15662;49.128;8.520;2022-08-21T03:24:57;2.20;;;1.88;;
28427;SDS011;15662;49.128;8.520;2022-08-21T03:27:27;1.88;;;1.60;;
28427;SDS011;15662;49.128;8.520;2022-08-21T03:29:58;2.58;;;1.80;;
28427;SDS011;15662;49.128;8.520;2022-08-21T03:32:26;1.95;;;1.77;;
28427;SDS011;15662;49.128;8.520;2022-08-21T03:34:55;2.63;;;1.67;;
28427;SDS011;15662;49.128;8.520;2022-08-21T03:37:23;2.65;;;1.80;;
28427;SDS011;15662;49.128;8.520;2022-08-21T03:39:51;2.47;;;1.70;;
28427;SDS011;15662;49.128;8.520;2022-08-21T03:42:20;3.60;;;1.70;;
28427;SDS011;15662;49.128;8.520;2022-08-21T03:44:48;3.75;;;2.00;;
28427;SDS011;15662;49.128;8.520;2022-08-21T03:47:17;2.45;;;1.75;;
28427;SDS011;15662;49.128;8.520;2022-08-21T03:49:45;2.42;;;1.70;;
28427;SDS011;15662;49.128;8.520;2022-08-21T03:52:13;1.83;;;1.70;;
28427;SDS011;15662;49.128;8.520;2022-08-21T03:54:43;2.65;;;1.85;;
28427;SDS011;15662;49.128;8.520;2022-08-21T03:57:12;4.10;;;1.88;;
28427;SDS011;15662;49.128;8.520;2022-08-21T03:59:40;1.83;;;1.52;;
28427;SDS011;15662;49.128;8.520;2022-08-21T04:02:12;2.50;;;1.90;;
28427;SDS011;15662;49.128;8.520;2022-08-21T04:04:46;2.45;;;2.00;;
28427;SDS011;15662;49.128;8.520;2022-08-21T04:07:15;1.90;;;1.70;;
28427;SDS011;15662;49.128;8.520;2022-08-21T04:09:44;2.28;;;1.80;;
28427;SDS011;15662;49.128;8.520;2022-08-21T04:12:13;1.73;;;1.63;;
28427;SDS011;15662;49.128;8.520;2022-08-21T04:14:41;3.90;;;1.70;;
28427;SDS011;15662;49.128;8.520;2022-08-21T04:17:10;2.63;;;1.80;;
28427;SDS011;15662;49.128;8.520;2022-08-21T04:19:39;2.50;;;1.85;;
28427;SDS011;15662;49.128;8.520;2022-08-21T04:22:08;2.45;;;1.67;;
28427;SDS011;15662;49.128;8.520;2022-08-21T04:24:36;2.70;;;1.67;;
28427;SDS011;15662;49.128;8.520;2022-08-21T04:27:05;2.95;;;2.20;;
28427;SDS011;15662;49.128;8.520;2022-08-21T04:29:33;4.70;;;2.00;;
28427;SDS011;15662;49.128;8.520;2022-08-21T04:32:06;2.42;;;1.85;;
28427;SDS011;15662;49.128;8.520;2022-08-21T04:34:36;2.70;;;1.80;;
28427;SDS011;15662;49.128;8.520;2022-08-21T04:37:05;2.47;;;1.80;;
28427;SDS011;15662;49.128;8.520;2022-08-21T04:39:33;2.63;;;1.90;;
28427;SDS011;15662;49.128;8.520;2022-08-21T04:42:02;2.50;;;1.60;;
28427;SDS011;15662;49.128;8.520;2022-08-21T04:44:34;4.55;;;1.90;;
28427;SDS011;15662;49.128;8.520;2022-08-21T04:47:03;1.90;;;1.65;;
28427;SDS011;15662;49.128;8.520;2022-08-21T04:49:32;1.70;;;1.60;;
28427;SDS011;15662;49.128;8.520;2022-08-21T04:52:02;3.15;;;1.80;;
28427;SDS011;15662;49.128;8.520;2022-08-21T04:54:33;2.75;;;1.90;;
28427;SDS011;15662;49.128;8.520;2022-08-21T04:57:04;2.50;;;1.83;;
28427;SDS011;15662;49.128;8.520;2022-08-21T04:59:39;2.35;;;1.70;;
28427;SDS011;15662;49.128;8.520;2022-08-21T05:02:18;2.77;;;2.00;;
28427;SDS011;15662;49.128;8.520;2022-08-21T05:04:49;2.07;;;1.90;;
28427;SDS011;15662;49.128;8.520;2022-08-21T05:07:22;2.08;;;1.63;;
28427;SDS011;15662;49.128;8.520;2022-08-21T05:10:09;3.00;;;2.17;;
28427;SDS011;15662;49.128;8.520;2022-08-21T05:12:40;2.55;;;2.17;;
28427;SDS011;15662;49.128;8.520;2022-08-21T05:15:11;2.58;;;1.92;;
28427;SDS011;15662;49.128;8.520;2022-08-21T05:17:41;1.92;;;1.70;;
28427;SDS011;15662;49.128;8.520;2022-08-21T05:20:10;3.22;;;1.98;;
28427;SDS011;15662;49.128;8.520;2022-08-21T05:22:41;2.33;;;1.92;;
28427;SDS011;15662;49.128;8.520;2022-08-21T05:25:10;2.08;;;1.73;;
28427;SDS011;15662;49.128;8.520;2022-08-21T05:27:39;4.72;;;2.00;;
28427;SDS011;15662;49.128;8.520;2022-08-21T05:30:09;3.47;;;1.88;;
28427;SDS011;15662;49.128;8.520;2022-08-21T05:32:39;2.00;;;1.90;;
28427;SDS011;15662;49.128;8.520;2022-08-21T05:35:07;2.53;;;1.80;;
28427;SDS011;15662;49.128;8.520;2022-08-21T05:37:56;5.90;;;4.28;;
28427;SDS011;15662;49.128;8.520;2022-08-21T05:40:45;3.95;;;3.47;;
28427;SDS011;15662;49.128;8.520;2022-08-21T05:43:29;2.83;;;2.50;;
28427;SDS011;15662;49.128;8.520;2022-08-21T05:46:00;4.32;;;2.92;;
28427;SDS011;15662;49.128;8.520;2022-08-21T05:48:28;5.82;;;2.17;;
28427;SDS011;15662;49.128;8.520;2022-08-21T05:50:57;2.50;;;1.77;;
28427;SDS011;15662;49.128;8.520;2022-08-21T05:53:36;3.13;;;1.90;;
28427;SDS011;15662;49.128;8.520;2022-08-21T05:56:05;2.88;;;1.80;;
28427;SDS011;15662;49.128;8.520;2022-08-21T05:58:34;2.72;;;1.80;;
28427;SDS011;15662;49.128;8.520;2022-08-21T06:01:03;2.92;;;1.70;;
28427;SDS011;15662;49.128;8.520;2022-08-21T06:03:33;4.90;;;1.90;;
28427;SDS011;15662;49.128;8.520;2022-08-21T06:06:04;2.03;;;1.60;;
28427;SDS011;15662;49.128;8.520;2022-08-21T06:08:33;4.05;;;2.00;;
28427;SDS011;15662;49.128;8.520;2022-08-21T06:11:03;3.25;;;1.85;;
28427;SDS011;15662;49.128;8.520;2022-08-21T06:13:34;3.35;;;1.90;;
28427;SDS011;15662;49.128;8.520;2022-08-21T06:16:05;2.55;;;1.83;;
28427;SDS011;15662;49.128;8.520;2022-08-21T06:18:42;2.55;;;1.90;;
28427;SDS011;15662;49.128;8.520;2022-08-21T06:21:13;4.33;;;1.83;;
28427;SDS011;15662;49.128;8.520;2022-08-21T06:23:42;3.40;;;2.20;;
28427;SDS011;15662;49.128;8.520;2022-08-21T06:26:11;2.75;;;1.80;;
28427;SDS011;15662;49.128;8.520;2022-08-21T06:28:41;4.22;;;1.92;;
28427;SDS011;15662;49.128;8.520;2022-08-21T06:31:15;3.53;;;2.08;;
28427;SDS011;15662;49.128;8.520;2022-08-21T06:33:49;2.78;;;1.70;;
28427;SDS011;15662;49.128;8.520;2022-08-21T06:36:18;5.55;;;2.35;;
28427;SDS011;15662;49.128;8.520;2022-08-21T06:38:50;2.03;;;1.65;;
28427;SDS011;15662;49.128;8.520;2022-08-21T06:41:23;2.58;;;1.85;;
28427;SDS011;15662;49.128;8.520;2022-08-21T06:43:53;2.80;;;1.63;;
28427;SDS011;15662;49.128;8.520;2022-08-21T06:46:24;2.10;;;1.90;;
28427;SDS011;15662;49.128;8.520;2022-08-21T06:48:56;2.70;;;1.70;;
28427;SDS011;15662;49.128;8.520;2022-08-21T06:51:27;4.22;;;2.22;;
28427;SDS011;15662;49.128;8.520;2022-08-21T06:53:57;2.60;;;1.85;;
28427;SDS011;15662;49.128;8.520;2022-08-21T06:56:25;2.55;;;2.00;;
28427;SDS011;15662;49.128;8.520;2022-08-21T06:58:54;5.63;;;2.10;;
28427;SDS011;15662;49.128;8.520;2022-08-21T07:01:23;2.70;;;2.13;;
28427;SDS011;15662;49.128;8.520;2022-08-21T07:03:54;3.63;;;2.10;;
28427;SDS011;15662;49.128;8.520;2022-08-21T07:06:23;2.40;;;2.17;;
28427;SDS011;15662;49.128;8.520;2022-08-21T07:08:52;3.83;;;1.80;;
28427;SDS011;15662;49.128;8.520;2022-08-21T07:11:25;3.22;;;1.83;;
28427;SDS011;15662;49.128;8.520;2022-08-21T07:13:53;2.22;;;1.88;;
28427;SDS011;15662;49.128;8.520;2022-08-21T07:16:23;3.22;;;2.05;;
28427;SDS011;15662;49.128;8.520;2022-08-21T07:18:52;3.95;;;1.90;;
28427;SDS011;15662;49.128;8.520;2022-08-21T07:21:20;3.72;;;2.15;;
28427;SDS011;15662;49.128;8.520;2022-08-21T07:23:52;2.97;;;1.88;;
28427;SDS011;15662;49.128;8.520;2022-08-21T07:26:23;2.80;;;1.90;;
28427;SDS011;15662;49.128;8.520;2022-08-21T07:28:54;2.90;;;1.75;;
28427;SDS011;15662;49.128;8.520;2022-08-21T07:31:23;3.10;;;1.70;;
28427;SDS011;15662;49.128;8.520;2022-08-21T07:33:53;2.00;;;1.80;;
28427;SDS011;15662;49.128;8.520;2022-08-21T07:36:22;3.42;;;1.83;;
28427;SDS011;15662;49.128;8.520;2022-08-21T07:38:51;3.13;;;1.73;;
28427;SDS011;15662;49.128;8.520;2022-08-21T07:41:20;2.50;;;1.58;;
28427;SDS011;15662;49.128;8.520;2022-08-21T07:43:52;2.15;;;1.75;;
28427;SDS011;15662;49.128;8.520;2022-08-21T07:46:20;2.88;;;1.65;;
28427;SDS011;15662;49.128;8.520;2022-08-21T07:48:50;4.45;;;2.75;;
28427;SDS011;15662;49.128;8.520;2022-08-21T07:51:20;2.88;;;2.50;;
28427;SDS011;15662;49.128;8.520;2022-08-21T07:53:55;3.60;;;1.90;;
28427;SDS011;15662;49.128;8.520;2022-08-21T07:56:26;3.30;;;2.00;;
28427;SDS011;15662;49.128;8.520;2022-08-21T07:58:57;3.10;;;1.92;;
28427;SDS011;15662;49.128;8.520;2022-08-21T08:01:26;4.18;;;2.50;;
28427;SDS011;15662;49.128;8.520;2022-08-21T08:03:54;4.10;;;2.65;;
28427;SDS011;15662;49.128;8.520;2022-08-21T08:06:23;3.47;;;2.05;;
28427;SDS011;15662;49.128;8.520;2022-08-21T08:08:53;2.78;;;2.20;;
28427;SDS011;15662;49.128;8.520;2022-08-21T08:11:21;3.85;;;2.13;;
28427;SDS011;15662;49.128;8.520;2022-08-21T08:13:51;3.67;;;1.80;;
28427;SDS011;15662;49.128;8.520;2022-08-21T08:16:19;4.03;;;1.90;;
28427;SDS011;15662;49.128;8.520;2022-08-21T08:18:48;3.20;;;2.13;;
28427;SDS011;15662;49.128;8.520;2022-08-21T08:21:18;3.13;;;2.10;;
28427;SDS011;15662;49.128;8.520;2022-08-21T08:23:49;2.13;;;1.90;;
28427;SDS011;15662;49.128;8.520;2022-08-21T08:26:18;4.57;;;2.10;;
28427;SDS011;15662;49.128;8.520;2022-08-21T08:28:46;3.92;;;2.10;;
28427;SDS011;15662;49.128;8.520;2022-08-21T08:31:15;3.95;;;1.88;;
28427;SDS011;15662;49.128;8.520;2022-08-21T08:33:43;5.40;;;2.55;;
28427;SDS011;15662;49.128;8.520;2022-08-21T08:36:16;3.33;;;2.15;;
28427;SDS011;15662;49.128;8.520;2022-08-21T08:38:46;3.25;;;2.10;;
28427;SDS011;15662;49.128;8.520;2022-08-21T08:41:17;3.10;;;2.05;;
28427;SDS011;15662;49.128;8.520;2022-08-21T08:44:02;2.90;;;1.93;;
28427;SDS011;15662;49.128;8.520;2022-08-21T08:46:54;3.75;;;2.20;;
28427;SDS011;15662;49.128;8.520;2022-08-21T08:49:27;4.22;;;2.40;;
28427;SDS011;15662;49.128;8.520;2022-08-21T08:52:33;6.80;;;3.10;;
28427;SDS011;15662;49.128;8.520;2022-08-21T08:57:45;3.35;;;2.33;;
28427;SDS011;15662;49.128;8.520;2022-08-21T09:00:17;5.80;;;3.30;;
28427;SDS011;15662;49.128;8.520;2022-08-21T09:02:55;4.07;;;2.53;;
28427;SDS011;15662;49.128;8.520;2022-08-21T09:05:30;4.70;;;2.20;;
28427;SDS011;15662;49.128;8.520;2022-08-21T09:08:49;4.55;;;3.70;;
28427;SDS011;15662;49.128;8.520;2022-08-21T09:20:12;3.20;;;2.42;;
28427;SDS011;15662;49.128;8.520;2022-08-21T09:26:04;3.38;;;2.35;;
28427;SDS011;15662;49.128;8.520;2022-08-21T09:28:40;4.95;;;2.42;;
28427;SDS011;15662;49.128;8.520;2022-08-21T09:31:21;2.63;;;2.08;;
28427;SDS011;15662;49.128;8.520;2022-08-21T09:34:01;3.28;;;2.20;;
28427;SDS011;15662;49.128;8.520;2022-08-21T09:36:47;3.70;;;2.00;;
28427;SDS011;15662;49.128;8.520;2022-08-21T09:39:31;5.15;;;2.35;;
28427;SDS011;15662;49.128;8.520;2022-08-21T09:42:11;3.35;;;1.98;;
28427;SDS011;15662;49.128;8.520;2022-08-21T09:45:04;2.95;;;2.47;;
28427;SDS011;15662;49.128;8.520;2022-08-21T09:47:42;5.78;;;2.30;;
28427;SDS011;15662;49.128;8.520;2022-08-21T09:50:24;4.15;;;2.25;;
28427;SDS011;15662;49.128;8.520;2022-08-21T09:52:57;3.17;;;1.90;;
28427;SDS011;15662;49.128;8.520;2022-08-21T09:55:32;3.63;;;2.30;;
28427;SDS011;15662;49.128;8.520;2022-08-21T09:58:40;3.45;;;2.17;;
28427;SDS011;15662;49.128;8.520;2022-08-21T10:01:32;2.95;;;2.00;;
28427;SDS011;15662;49.128;8.520;2022-08-21T10:04:11;5.50;;;2.05;;
28427;SDS011;15662;49.128;8.520;2022-08-21T10:06:41;4.00;;;1.87;;
28427;SDS011;15662;49.128;8.520;2022-08-21T10:09:14;5.45;;;2.42;;
28427;SDS011;15662;49.128;8.520;2022-08-21T10:11:58;3.85;;;2.20;;
28427;SDS011;15662;49.128;8.520;2022-08-21T10:17:52;3.75;;;2.20;;
28427;SDS011;15662;49.128;8.520;2022-08-21T10:20:45;4.13;;;2.20;;
28427;SDS011;15662;49.128;8.520;2022-08-21T10:30:11;4.30;;;2.45;;
28427;SDS011;15662;49.128;8.520;2022-08-21T10:36:25;7.25;;;3.95;;
28427;SDS011;15662;49.128;8.520;2022-08-21T10:39:13;4.72;;;2.25;;
28427;SDS011;15662;49.128;8.520;2022-08-21T10:42:12;2.20;;;1.92;;
28427;SDS011;15662;49.128;8.520;2022-08-21T10:45:10;5.22;;;2.60;;
28427;SDS011;15662;49.128;8.520;2022-08-21T10:48:06;2.55;;;2.03;;
28427;SDS011;15662;49.128;8.520;2022-08-21T10:50:48;4.20;;;2.38;;
28427;SDS011;15662;49.128;8.520;2022-08-21T10:53:36;3.28;;;2.40;;
28427;SDS011;15662;49.128;8.520;2022-08-21T11:05:29;3.53;;;2.13;;
28427;SDS011;15662;49.128;8.520;2022-08-21T11:08:39;3.27;;;2.20;;
28427;SDS011;15662;49.128;8.520;2022-08-21T11:11:10;3.75;;;2.08;;
28427;SDS011;15662;49.128;8.520;2022-08-21T11:17:18;2.97;;;1.80;;
28427;SDS011;15662;49.128;8.520;2022-08-21T11:20:15;3.97;;;1.83;;
28427;SDS011;15662;49.128;8.520;2022-08-21T11:25:55;2.65;;;2.20;;
28427;SDS011;15662;49.128;8.520;2022-08-21T11:28:34;7.63;;;1.85;;
28427;SDS011;15662;49.128;8.520;2022-08-21T11:43:56;2.15;;;1.90;;
28427;SDS011;15662;49.128;8.520;2022-08-21T11:55:45;2.90;;;2.13;;
28427;SDS011;15662;49.128;8.520;2022-08-21T12:03:58;2.38;;;2.08;;
28427;SDS011;15662;49.128;8.520;2022-08-21T12:06:38;2.17;;;1.80;;
28427;SDS011;15662;49.128;8.520;2022-08-21T12:09:30;3.15;;;1.98;;
28427;SDS011;15662;49.128;8.520;2022-08-21T12:12:11;1.65;;;1.52;;
28427;SDS011;15662;49.128;8.520;2022-08-21T12:18:03;3.58;;;1.98;;
28427;SDS011;15662;49.128;8.520;2022-08-21T12:34:46;1.60;;;1.38;;
28427;SDS011;15662;49.128;8.520;2022-08-21T12:40:40;3.08;;;2.00;;
28427;SDS011;15662;49.128;8.520;2022-08-21T12:45:55;2.75;;;1.73;;
28427;SDS011;15662;49.128;8.520;2022-08-21T12:48:27;3.38;;;2.20;;
28427;SDS011;15662;49.128;8.520;2022-08-21T12:51:31;4.90;;;1.77;;
28427;SDS011;15662;49.128;8.520;2022-08-21T12:54:26;2.20;;;1.60;;
28427;SDS011;15662;49.128;8.520;2022-08-21T12:57:03;2.55;;;1.60;;
28427;SDS011;15662;49.128;8.520;2022-08-21T12:59:37;1.65;;;1.38;;
28427;SDS011;15662;49.128;8.520;2022-08-21T13:02:27;1.80;;;1.70;;
28427;SDS011;15662;49.128;8.520;2022-08-21T13:05:04;1.75;;;1.40;;
28427;SDS011;15662;49.128;8.520;2022-08-21T13:07:46;3.17;;;1.60;;
28427;SDS011;15662;49.128;8.520;2022-08-21T13:12:59;2.42;;;1.60;;
28427;SDS011;15662;49.128;8.520;2022-08-21T13:15:39;2.47;;;1.40;;
28427;SDS011;15662;49.128;8.520;2022-08-21T13:18:22;1.90;;;1.60;;
28427;SDS011;15662;49.128;8.520;2022-08-21T13:21:03;1.80;;;1.60;;
28427;SDS011;15662;49.128;8.520;2022-08-21T13:23:39;2.42;;;1.63;;
28427;SDS011;15662;49.128;8.520;2022-08-21T13:26:19;2.20;;;1.40;;
28427;SDS011;15662;49.128;8.520;2022-08-21T13:28:49;2.75;;;1.67;;
28427;SDS011;15662;49.128;8.520;2022-08-21T13:31:20;2.35;;;1.55;;
28427;SDS011;15662;49.128;8.520;2022-08-21T13:33:59;2.60;;;1.75;;
28427;SDS011;15662;49.128;8.520;2022-08-21T13:36:35;1.97;;;1.60;;
28427;SDS011;15662;49.128;8.520;2022-08-21T13:39:10;5.22;;;1.60;;
28427;SDS011;15662;49.128;8.520;2022-08-21T13:41:44;2.10;;;1.90;;
28427;SDS011;15662;49.128;8.520;2022-08-21T13:44:19;2.67;;;1.73;;
28427;SDS011;15662;49.128;8.520;2022-08-21T13:47:14;1.83;;;1.70;;
28427;SDS011;15662;49.128;8.520;2022-08-21T13:49:46;2.05;;;1.70;;
28427;SDS011;15662;49.128;8.520;2022-08-21T13:52:22;2.55;;;1.55;;
28427;SDS011;15662;49.128;8.520;2022-08-21T13:55:06;1.98;;;1.80;;
28427;SDS011;15662;49.128;8.520;2022-08-21T13:57:40;2.00;;;1.80;;
28427;SDS011;15662;49.128;8.520;2022-08-21T14:00:26;1.55;;;1.45;;
28427;SDS011;15662;49.128;8.520;2022-08-21T14:03:09;2.22;;;1.50;;
28427;SDS011;15662;49.128;8.520;2022-08-21T14:05:51;1.50;;;1.30;;
28427;SDS011;15662;49.128;8.520;2022-08-21T14:10:59;1.58;;;1.48;;
28427;SDS011;15662;49.128;8.520;2022-08-21T14:13:36;2.15;;;1.65;;
28427;SDS011;15662;49.128;8.520;2022-08-21T14:21:32;1.60;;;1.50;;
28427;SDS011;15662;49.128;8.520;2022-08-21T14:24:30;1.65;;;1.55;;
28427;SDS011;15662;49.128;8.520;2022-08-21T14:27:04;1.52;;;1.42;;
28427;SDS011;15662;49.128;8.520;2022-08-21T14:29:38;1.58;;;1.45;;
28427;SDS011;15662;49.128;8.520;2022-08-21T14:32:17;1.83;;;1.67;;
28427;SDS011;15662;49.128;8.520;2022-08-21T14:34:52;2.28;;;1.70;;
28427;SDS011;15662;49.128;8.520;2022-08-21T14:37:25;2.65;;;1.80;;
28427;SDS011;15662;49.128;8.520;2022-08-21T14:39:57;1.67;;;1.58;;
28427;SDS011;15662;49.128;8.520;2022-08-21T14:42:26;2.25;;;1.58;;
28427;SDS011;15662;49.128;8.520;2022-08-21T14:44:57;2.00;;;1.50;;
28427;SDS011;15662;49.128;8.520;2022-08-21T14:47:36;3.17;;;1.75;;
28427;SDS011;15662;49.128;8.520;2022-08-21T14:50:05;1.70;;;1.50;;
28427;SDS011;15662;49.128;8.520;2022-08-21T14:52:37;1.73;;;1.63;;
28427;SDS011;15662;49.128;8.520;2022-08-21T14:55:07;1.52;;;1.38;;
28427;SDS011;15662;49.128;8.520;2022-08-21T14:57:42;2.20;;;1.55;;
28427;SDS011;15662;49.128;8.520;2022-08-21T15:00:17;1.60;;;1.33;;
28427;SDS011;15662;49.128;8.520;2022-08-21T15:03:01;3.67;;;1.52;;
28427;SDS011;15662;49.128;8.520;2022-08-21T15:08:06;2.53;;;1.45;;
28427;SDS011;15662;49.128;8.520;2022-08-21T15:10:36;2.03;;;1.50;;
28427;SDS011;15662;49.128;8.520;2022-08-21T15:13:24;2.97;;;1.40;;
28427;SDS011;15662;49.128;8.520;2022-08-21T15:15:53;2.28;;;1.48;;
28427;SDS011;15662;49.128;8.520;2022-08-21T15:18:24;2.50;;;1.50;;
28427;SDS011;15662;49.128;8.520;2022-08-21T15:20:56;1.45;;;1.35;;
28427;SDS011;15662;49.128;8.520;2022-08-21T15:23:28;1.50;;;1.40;;
28427;SDS011;15662;49.128;8.520;2022-08-21T15:25:57;1.42;;;1.33;;
28427;SDS011;15662;49.128;8.520;2022-08-21T15:28:27;1.73;;;1.52;;
28427;SDS011;15662;49.128;8.520;2022-08-21T15:30:58;1.80;;;1.40;;
28427;SDS011;15662;49.128;8.520;2022-08-21T15:33:28;1.55;;;1.45;;
28427;SDS011;15662;49.128;8.520;2022-08-21T15:35:58;1.67;;;1.40;;
28427;SDS011;15662;49.128;8.520;2022-08-21T15:38:27;1.52;;;1.42;;
28427;SDS011;15662;49.128;8.520;2022-08-21T15:40:56;1.42;;;1.33;;
28427;SDS011;15662;49.128;8.520;2022-08-21T15:43:26;1.50;;;1.40;;
28427;SDS011;15662;49.128;8.520;2022-08-21T15:45:58;2.97;;;1.23;;
28427;SDS011;15662;49.128;8.520;2022-08-21T15:48:27;1.40;;;1.30;;
28427;SDS011;15662;49.128;8.520;2022-08-21T15:50:58;1.60;;;1.50;;
28427;SDS011;15662;49.128;8.520;2022-08-21T15:53:27;1.67;;;1.50;;
28427;SDS011;15662;49.128;8.520;2022-08-21T15:55:57;1.93;;;1.40;;
28427;SDS011;15662;49.128;8.520;2022-08-21T15:58:30;1.58;;;1.33;;
28427;SDS011;15662;49.128;8.520;2022-08-21T16:00:59;1.30;;;1.20;;
28427;SDS011;15662;49.128;8.520;2022-08-21T16:03:29;1.95;;;1.27;;
28427;SDS011;15662;49.128;8.520;2022-08-21T16:05:59;3.15;;;1.50;;
28427;SDS011;15662;49.128;8.520;2022-08-21T16:08:27;1.67;;;1.40;;
28427;SDS011;15662;49.128;8.520;2022-08-21T16:10:56;1.40;;;1.30;;
28427;SDS011;15662;49.128;8.520;2022-08-21T16:13:25;1.70;;;1.60;;
28427;SDS011;15662;49.128;8.520;2022-08-21T16:16:02;1.77;;;1.30;;
28427;SDS011;15662;49.128;8.520;2022-08-21T16:18:33;1.48;;;1.38;;
28427;SDS011;15662;49.128;8.520;2022-08-21T16:21:02;1.55;;;1.33;;
28427;SDS011;15662;49.128;8.520;2022-08-21T16:23:30;1.40;;;1.30;;
28427;SDS011;15662;49.128;8.520;2022-08-21T16:25:59;1.40;;;1.30;;
28427;SDS011;15662;49.128;8.520;2022-08-21T16:28:30;1.85;;;1.23;;
28427;SDS011;15662;49.128;8.520;2022-08-21T16:31:03;1.40;;;1.30;;
28427;SDS011;15662;49.128;8.520;2022-08-21T16:33:33;1.42;;;1.27;;
28427;SDS011;15662;49.128;8.520;2022-08-21T16:36:10;1.83;;;1.33;;
28427;SDS011;15662;49.128;8.520;2022-08-21T16:38:40;2.45;;;1.92;;
28427;SDS011;15662;49.128;8.520;2022-08-21T16:41:13;2.10;;;1.65;;
28427;SDS011;15662;49.128;8.520;2022-08-21T16:43:46;1.90;;;1.50;;
28427;SDS011;15662;49.128;8.520;2022-08-21T16:46:19;1.52;;;1.42;;
28427;SDS011;15662;49.128;8.520;2022-08-21T16:51:18;5.07;;;1.48;;
28427;SDS011;15662;49.128;8.520;2022-08-21T16:53:47;2.28;;;1.63;;
28427;SDS011;15662;49.128;8.520;2022-08-21T16:56:17;1.58;;;1.45;;
28427;SDS011;15662;49.128;8.520;2022-08-21T16:58:48;1.92;;;1.83;;
28427;SDS011;15662;49.128;8.520;2022-08-21T17:01:21;1.45;;;1.35;;
28427;SDS011;15662;49.128;8.520;2022-08-21T17:03:55;2.30;;;1.27;;
28427;SDS011;15662;49.128;8.520;2022-08-21T17:06:25;2.00;;;1.55;;
28427;SDS011;15662;49.128;8.520;2022-08-21T17:08:55;2.58;;;1.45;;
28427;SDS011;15662;49.128;8.520;2022-08-21T17:14:14;2.60;;;1.40;;
28427;SDS011;15662;49.128;8.520;2022-08-21T17:16:50;2.25;;;1.60;;
28427;SDS011;15662;49.128;8.520;2022-08-21T17:19:22;2.17;;;1.63;;
28427;SDS011;15662;49.128;8.520;2022-08-21T17:21:52;1.50;;;1.40;;
28427;SDS011;15662;49.128;8.520;2022-08-21T17:24:22;1.98;;;1.70;;
28427;SDS011;15662;49.128;8.520;2022-08-21T17:26:51;2.22;;;1.60;;